sensor_id;sensor_type;location;lat;lon;timestamp;P1;durP1;ratioP1;P2;durP2;ratioP2
18194;SDS011;9223;50.988;3.162;2023-09-19T00:00:18;3.78;;;1.33;;
18194;SDS011;9223;50.988;3.162;2023-09-19T00:06:23;6.90;;;1.70;;
18194;SDS011;9223;50.988;3.162;2023-09-19T00:12:28;4.65;;;1.90;;
18194;SDS011;9223;50.988;3.162;2023-09-19T00:18:32;5.68;;;1.73;;
18194;SDS011;9223;50.988;3.162;2023-09-19T00:24:37;4.25;;;1.30;;
18194;SDS011;9223;50.988;3.162;2023-09-19T00:30:43;5.93;;;1.92;;
18194;SDS011;9223;50.988;3.162;2023-09-19T00:36:48;5.28;;;1.30;;
18194;SDS011;9223;50.988;3.162;2023-09-19T00:42:52;6.32;;;2.03;;
18194;SDS011;9223;50.988;3.162;2023-09-19T00:49:03;6.40;;;2.00;;
18194;SDS011;9223;50.988;3.162;2023-09-19T00:55:07;6.22;;;2.70;;
18194;SDS011;9223;50.988;3.162;2023-09-19T01:01:11;6.55;;;2.35;;
18194;SDS011;9223;50.988;3.162;2023-09-19T01:07:18;9.30;;;1.63;;
18194;SDS011;9223;50.988;3.162;2023-09-19T01:13:22;6.13;;;1.98;;
18194;SDS011;9223;50.988;3.162;2023-09-19T01:19:49;5.00;;;1.60;;
18194;SDS011;9223;50.988;3.162;2023-09-19T01:26:06;4.72;;;1.55;;
18194;SDS011;9223;50.988;3.162;2023-09-19T01:32:13;6.45;;;1.95;;
18194;SDS011;9223;50.988;3.162;2023-09-19T01:38:19;10.27;;;2.30;;
18194;SDS011;9223;50.988;3.162;2023-09-19T01:44:25;5.05;;;1.63;;
18194;SDS011;9223;50.988;3.162;2023-09-19T01:50:38;6.03;;;1.65;;
18194;SDS011;9223;50.988;3.162;2023-09-19T01:56:45;5.10;;;1.60;;
18194;SDS011;9223;50.988;3.162;2023-09-19T02:02:52;3.70;;;1.30;;
18194;SDS011;9223;50.988;3.162;2023-09-19T02:52:09;4.10;;;1.02;;
18194;SDS011;9223;50.988;3.162;2023-09-19T03:06:03;5.78;;;1.88;;
18194;SDS011;9223;50.988;3.162;2023-09-19T04:24:29;4.97;;;1.40;;
18194;SDS011;9223;50.988;3.162;2023-09-19T04:53:02;7.82;;;1.40;;
18194;SDS011;9223;50.988;3.162;2023-09-19T05:01:17;5.03;;;1.50;;
18194;SDS011;9223;50.988;3.162;2023-09-19T05:14:29;8.75;;;2.05;;
18194;SDS011;9223;50.988;3.162;2023-09-19T05:20:34;7.93;;;2.03;;
18194;SDS011;9223;50.988;3.162;2023-09-19T05:26:57;6.28;;;2.15;;
18194;SDS011;9223;50.988;3.162;2023-09-19T05:33:15;4.90;;;1.58;;
18194;SDS011;9223;50.988;3.162;2023-09-19T05:40:04;6.70;;;1.60;;
18194;SDS011;9223;50.988;3.162;2023-09-19T05:46:21;4.88;;;1.50;;
18194;SDS011;9223;50.988;3.162;2023-09-19T05:52:33;4.22;;;1.48;;
18194;SDS011;9223;50.988;3.162;2023-09-19T05:58:38;6.32;;;1.52;;
18194;SDS011;9223;50.988;3.162;2023-09-19T06:04:44;6.38;;;1.17;;
18194;SDS011;9223;50.988;3.162;2023-09-19T06:10:49;8.90;;;1.90;;
18194;SDS011;9223;50.988;3.162;2023-09-19T06:16:54;5.50;;;1.55;;
18194;SDS011;9223;50.988;3.162;2023-09-19T06:22:57;5.80;;;1.73;;
18194;SDS011;9223;50.988;3.162;2023-09-19T06:29:04;5.18;;;1.30;;
18194;SDS011;9223;50.988;3.162;2023-09-19T06:35:09;7.18;;;1.23;;
18194;SDS011;9223;50.988;3.162;2023-09-19T06:41:13;4.28;;;1.60;;
18194;SDS011;9223;50.988;3.162;2023-09-19T06:47:20;3.00;;;1.13;;
18194;SDS011;9223;50.988;3.162;2023-09-19T06:53:23;6.07;;;1.15;;
18194;SDS011;9223;50.988;3.162;2023-09-19T06:59:27;4.75;;;1.30;;
18194;SDS011;9223;50.988;3.162;2023-09-19T07:05:32;2.58;;;1.20;;
18194;SDS011;9223;50.988;3.162;2023-09-19T07:11:41;6.70;;;1.65;;
18194;SDS011;9223;50.988;3.162;2023-09-19T07:17:46;3.85;;;1.60;;
18194;SDS011;9223;50.988;3.162;2023-09-19T07:23:51;6.35;;;1.52;;
18194;SDS011;9223;50.988;3.162;2023-09-19T07:29:55;4.65;;;1.23;;
18194;SDS011;9223;50.988;3.162;2023-09-19T07:35:58;5.75;;;1.50;;
18194;SDS011;9223;50.988;3.162;2023-09-19T07:42:04;5.38;;;1.50;;
18194;SDS011;9223;50.988;3.162;2023-09-19T07:48:08;6.05;;;1.65;;
18194;SDS011;9223;50.988;3.162;2023-09-19T07:54:16;5.32;;;1.33;;
18194;SDS011;9223;50.988;3.162;2023-09-19T08:00:21;3.88;;;1.08;;
18194;SDS011;9223;50.988;3.162;2023-09-19T08:06:25;5.35;;;1.42;;
18194;SDS011;9223;50.988;3.162;2023-09-19T08:12:31;3.70;;;1.30;;
18194;SDS011;9223;50.988;3.162;2023-09-19T08:18:36;6.57;;;1.65;;
18194;SDS011;9223;50.988;3.162;2023-09-19T08:24:41;5.68;;;1.30;;
18194;SDS011;9223;50.988;3.162;2023-09-19T08:30:45;4.60;;;1.42;;
18194;SDS011;9223;50.988;3.162;2023-09-19T08:36:51;4.75;;;1.40;;
18194;SDS011;9223;50.988;3.162;2023-09-19T08:42:57;4.40;;;1.13;;
18194;SDS011;9223;50.988;3.162;2023-09-19T08:49:03;5.55;;;1.23;;
18194;SDS011;9223;50.988;3.162;2023-09-19T08:55:10;3.95;;;1.30;;
18194;SDS011;9223;50.988;3.162;2023-09-19T09:01:15;4.30;;;1.20;;
18194;SDS011;9223;50.988;3.162;2023-09-19T09:07:26;5.53;;;1.13;;
18194;SDS011;9223;50.988;3.162;2023-09-19T09:13:31;3.08;;;0.88;;
18194;SDS011;9223;50.988;3.162;2023-09-19T09:19:35;3.13;;;1.10;;
18194;SDS011;9223;50.988;3.162;2023-09-19T09:25:48;3.78;;;0.95;;
18194;SDS011;9223;50.988;3.162;2023-09-19T09:31:57;3.42;;;1.00;;
18194;SDS011;9223;50.988;3.162;2023-09-19T09:38:20;6.57;;;1.10;;
18194;SDS011;9223;50.988;3.162;2023-09-19T09:44:27;4.72;;;1.20;;
18194;SDS011;9223;50.988;3.162;2023-09-19T09:50:35;3.10;;;1.00;;
18194;SDS011;9223;50.988;3.162;2023-09-19T09:56:52;3.60;;;0.88;;
18194;SDS011;9223;50.988;3.162;2023-09-19T10:03:02;2.35;;;0.77;;
18194;SDS011;9223;50.988;3.162;2023-09-19T10:09:09;4.60;;;0.52;;
18194;SDS011;9223;50.988;3.162;2023-09-19T10:15:15;2.63;;;0.80;;
18194;SDS011;9223;50.988;3.162;2023-09-19T10:21:19;1.63;;;0.68;;
18194;SDS011;9223;50.988;3.162;2023-09-19T10:27:26;1.55;;;0.80;;
18194;SDS011;9223;50.988;3.162;2023-09-19T10:33:33;4.03;;;0.90;;
18194;SDS011;9223;50.988;3.162;2023-09-19T10:39:39;3.28;;;0.80;;
18194;SDS011;9223;50.988;3.162;2023-09-19T10:45:44;1.75;;;0.75;;
18194;SDS011;9223;50.988;3.162;2023-09-19T10:51:52;2.90;;;1.05;;
18194;SDS011;9223;50.988;3.162;2023-09-19T10:57:58;4.97;;;0.80;;
18194;SDS011;9223;50.988;3.162;2023-09-19T11:29:33;1.80;;;0.75;;
18194;SDS011;9223;50.988;3.162;2023-09-19T11:41:55;4.38;;;1.17;;
18194;SDS011;9223;50.988;3.162;2023-09-19T11:48:01;1.92;;;1.02;;
18194;SDS011;9223;50.988;3.162;2023-09-19T11:54:10;6.57;;;1.50;;
18194;SDS011;9223;50.988;3.162;2023-09-19T12:00:16;4.47;;;1.35;;
18194;SDS011;9223;50.988;3.162;2023-09-19T12:06:22;3.58;;;1.20;;
18194;SDS011;9223;50.988;3.162;2023-09-19T12:12:26;6.00;;;1.73;;
18194;SDS011;9223;50.988;3.162;2023-09-19T12:18:31;7.45;;;1.67;;
18194;SDS011;9223;50.988;3.162;2023-09-19T12:24:38;3.47;;;1.42;;
18194;SDS011;9223;50.988;3.162;2023-09-19T12:30:45;4.05;;;1.40;;
18194;SDS011;9223;50.988;3.162;2023-09-19T12:37:01;4.85;;;1.40;;
18194;SDS011;9223;50.988;3.162;2023-09-19T12:43:08;4.57;;;1.55;;
18194;SDS011;9223;50.988;3.162;2023-09-19T12:49:17;4.05;;;1.30;;
18194;SDS011;9223;50.988;3.162;2023-09-19T12:55:21;4.63;;;1.52;;
18194;SDS011;9223;50.988;3.162;2023-09-19T13:01:26;6.07;;;1.50;;
18194;SDS011;9223;50.988;3.162;2023-09-19T13:07:40;3.45;;;1.30;;
18194;SDS011;9223;50.988;3.162;2023-09-19T13:13:45;5.28;;;1.70;;
18194;SDS011;9223;50.988;3.162;2023-09-19T13:19:53;3.67;;;1.40;;
18194;SDS011;9223;50.988;3.162;2023-09-19T13:25:58;3.45;;;1.30;;
18194;SDS011;9223;50.988;3.162;2023-09-19T13:32:02;4.25;;;1.70;;
18194;SDS011;9223;50.988;3.162;2023-09-19T13:38:07;3.70;;;1.63;;
18194;SDS011;9223;50.988;3.162;2023-09-19T13:44:13;4.85;;;1.92;;
18194;SDS011;9223;50.988;3.162;2023-09-19T13:50:18;5.32;;;1.65;;
18194;SDS011;9223;50.988;3.162;2023-09-19T13:56:27;5.53;;;1.65;;
18194;SDS011;9223;50.988;3.162;2023-09-19T14:02:32;3.88;;;1.80;;
18194;SDS011;9223;50.988;3.162;2023-09-19T14:08:36;6.95;;;2.00;;
18194;SDS011;9223;50.988;3.162;2023-09-19T14:14:41;7.03;;;1.77;;
18194;SDS011;9223;50.988;3.162;2023-09-19T14:20:46;5.95;;;1.85;;
18194;SDS011;9223;50.988;3.162;2023-09-19T14:26:51;3.92;;;1.85;;
18194;SDS011;9223;50.988;3.162;2023-09-19T14:32:56;5.05;;;1.80;;
18194;SDS011;9223;50.988;3.162;2023-09-19T14:39:00;6.20;;;1.80;;
18194;SDS011;9223;50.988;3.162;2023-09-19T14:45:05;3.33;;;1.35;;
18194;SDS011;9223;50.988;3.162;2023-09-19T14:51:10;6.75;;;1.73;;
18194;SDS011;9223;50.988;3.162;2023-09-19T14:57:13;5.85;;;1.98;;
18194;SDS011;9223;50.988;3.162;2023-09-19T15:03:17;5.32;;;2.22;;
18194;SDS011;9223;50.988;3.162;2023-09-19T15:09:22;6.93;;;2.93;;
18194;SDS011;9223;50.988;3.162;2023-09-19T15:15:27;7.38;;;2.10;;
18194;SDS011;9223;50.988;3.162;2023-09-19T15:21:31;4.97;;;2.20;;
18194;SDS011;9223;50.988;3.162;2023-09-19T15:27:36;6.93;;;2.10;;
18194;SDS011;9223;50.988;3.162;2023-09-19T15:33:40;6.25;;;2.05;;
18194;SDS011;9223;50.988;3.162;2023-09-19T15:39:44;6.22;;;2.05;;
18194;SDS011;9223;50.988;3.162;2023-09-19T15:45:49;5.65;;;2.33;;
18194;SDS011;9223;50.988;3.162;2023-09-19T15:51:53;11.20;;;2.97;;
18194;SDS011;9223;50.988;3.162;2023-09-19T15:57:56;6.82;;;2.22;;
18194;SDS011;9223;50.988;3.162;2023-09-19T16:04:01;8.38;;;2.50;;
18194;SDS011;9223;50.988;3.162;2023-09-19T16:10:06;5.22;;;2.65;;
18194;SDS011;9223;50.988;3.162;2023-09-19T16:16:09;7.38;;;2.55;;
18194;SDS011;9223;50.988;3.162;2023-09-19T16:22:15;7.00;;;2.13;;
18194;SDS011;9223;50.988;3.162;2023-09-19T16:28:19;6.50;;;2.45;;
18194;SDS011;9223;50.988;3.162;2023-09-19T16:34:23;6.43;;;2.60;;
18194;SDS011;9223;50.988;3.162;2023-09-19T16:40:28;5.40;;;2.50;;
18194;SDS011;9223;50.988;3.162;2023-09-19T16:46:32;7.38;;;2.60;;
18194;SDS011;9223;50.988;3.162;2023-09-19T16:52:44;5.38;;;2.20;;
18194;SDS011;9223;50.988;3.162;2023-09-19T16:58:50;9.48;;;2.30;;
18194;SDS011;9223;50.988;3.162;2023-09-19T17:04:54;6.28;;;2.60;;
18194;SDS011;9223;50.988;3.162;2023-09-19T17:11:02;8.38;;;2.55;;
18194;SDS011;9223;50.988;3.162;2023-09-19T17:17:07;5.25;;;2.60;;
18194;SDS011;9223;50.988;3.162;2023-09-19T17:23:11;4.75;;;2.47;;
18194;SDS011;9223;50.988;3.162;2023-09-19T17:29:15;6.70;;;2.63;;
18194;SDS011;9223;50.988;3.162;2023-09-19T17:35:21;5.05;;;2.42;;
18194;SDS011;9223;50.988;3.162;2023-09-19T17:41:25;5.63;;;2.53;;
18194;SDS011;9223;50.988;3.162;2023-09-19T17:47:29;7.85;;;2.50;;
18194;SDS011;9223;50.988;3.162;2023-09-19T17:53:35;7.60;;;2.95;;
18194;SDS011;9223;50.988;3.162;2023-09-19T17:59:39;5.65;;;2.40;;
18194;SDS011;9223;50.988;3.162;2023-09-19T18:05:43;7.20;;;2.80;;
18194;SDS011;9223;50.988;3.162;2023-09-19T18:11:48;5.47;;;2.50;;
18194;SDS011;9223;50.988;3.162;2023-09-19T18:17:52;7.60;;;2.50;;
18194;SDS011;9223;50.988;3.162;2023-09-19T18:23:59;7.75;;;2.40;;
18194;SDS011;9223;50.988;3.162;2023-09-19T18:30:08;4.95;;;2.45;;
18194;SDS011;9223;50.988;3.162;2023-09-19T18:36:12;7.18;;;2.17;;
18194;SDS011;9223;50.988;3.162;2023-09-19T18:42:15;6.55;;;2.10;;
18194;SDS011;9223;50.988;3.162;2023-09-19T18:48:20;8.13;;;2.38;;
18194;SDS011;9223;50.988;3.162;2023-09-19T18:54:24;4.35;;;2.13;;
18194;SDS011;9223;50.988;3.162;2023-09-19T19:00:27;7.90;;;2.50;;
18194;SDS011;9223;50.988;3.162;2023-09-19T19:06:32;7.53;;;2.10;;
18194;SDS011;9223;50.988;3.162;2023-09-19T19:12:37;7.10;;;2.22;;
18194;SDS011;9223;50.988;3.162;2023-09-19T19:18:41;5.32;;;1.70;;
18194;SDS011;9223;50.988;3.162;2023-09-19T19:24:46;5.00;;;2.00;;
18194;SDS011;9223;50.988;3.162;2023-09-19T19:30:50;3.05;;;1.88;;
18194;SDS011;9223;50.988;3.162;2023-09-19T19:36:54;4.55;;;1.80;;
18194;SDS011;9223;50.988;3.162;2023-09-19T19:42:59;7.35;;;2.13;;
18194;SDS011;9223;50.988;3.162;2023-09-19T19:49:02;5.97;;;2.15;;
18194;SDS011;9223;50.988;3.162;2023-09-19T19:55:09;4.45;;;2.10;;
18194;SDS011;9223;50.988;3.162;2023-09-19T20:01:14;5.78;;;1.90;;
18194;SDS011;9223;50.988;3.162;2023-09-19T20:07:18;4.70;;;2.47;;
18194;SDS011;9223;50.988;3.162;2023-09-19T20:13:21;8.07;;;2.20;;
18194;SDS011;9223;50.988;3.162;2023-09-19T20:19:26;3.85;;;1.90;;
18194;SDS011;9223;50.988;3.162;2023-09-19T20:25:34;4.28;;;1.90;;
18194;SDS011;9223;50.988;3.162;2023-09-19T20:31:38;5.65;;;2.70;;
18194;SDS011;9223;50.988;3.162;2023-09-19T20:37:43;6.88;;;2.03;;
18194;SDS011;9223;50.988;3.162;2023-09-19T20:43:51;6.13;;;2.17;;
18194;SDS011;9223;50.988;3.162;2023-09-19T20:49:56;5.85;;;1.70;;
18194;SDS011;9223;50.988;3.162;2023-09-19T20:56:01;5.85;;;1.90;;
18194;SDS011;9223;50.988;3.162;2023-09-19T21:02:07;4.40;;;1.80;;
18194;SDS011;9223;50.988;3.162;2023-09-19T21:08:12;4.00;;;1.75;;
18194;SDS011;9223;50.988;3.162;2023-09-19T21:14:17;6.72;;;2.28;;
18194;SDS011;9223;50.988;3.162;2023-09-19T21:20:21;4.38;;;2.00;;
18194;SDS011;9223;50.988;3.162;2023-09-19T21:26:30;4.50;;;1.83;;
18194;SDS011;9223;50.988;3.162;2023-09-19T21:32:35;7.45;;;2.40;;
18194;SDS011;9223;50.988;3.162;2023-09-19T21:38:39;5.13;;;2.75;;
18194;SDS011;9223;50.988;3.162;2023-09-19T21:44:43;4.00;;;1.95;;
18194;SDS011;9223;50.988;3.162;2023-09-19T21:50:53;6.18;;;2.35;;
18194;SDS011;9223;50.988;3.162;2023-09-19T21:56:57;4.32;;;1.50;;
18194;SDS011;9223;50.988;3.162;2023-09-19T22:03:00;5.20;;;1.80;;
18194;SDS011;9223;50.988;3.162;2023-09-19T22:09:10;3.50;;;1.63;;
18194;SDS011;9223;50.988;3.162;2023-09-19T22:15:13;2.60;;;1.40;;
18194;SDS011;9223;50.988;3.162;2023-09-19T22:21:18;2.95;;;1.73;;
18194;SDS011;9223;50.988;3.162;2023-09-19T22:27:26;5.07;;;2.90;;
18194;SDS011;9223;50.988;3.162;2023-09-19T22:33:31;6.18;;;2.47;;
18194;SDS011;9223;50.988;3.162;2023-09-19T22:39:39;5.97;;;2.10;;
18194;SDS011;9223;50.988;3.162;2023-09-19T22:45:46;5.35;;;2.03;;
18194;SDS011;9223;50.988;3.162;2023-09-19T22:51:51;3.22;;;1.88;;
18194;SDS011;9223;50.988;3.162;2023-09-19T22:58:06;4.18;;;1.98;;
18194;SDS011;9223;50.988;3.162;2023-09-19T23:04:13;5.43;;;1.85;;
18194;SDS011;9223;50.988;3.162;2023-09-19T23:10:18;3.92;;;2.30;;
18194;SDS011;9223;50.988;3.162;2023-09-19T23:16:21;4.53;;;1.88;;
18194;SDS011;9223;50.988;3.162;2023-09-19T23:22:31;2.47;;;1.55;;
18194;SDS011;9223;50.988;3.162;2023-09-19T23:28:37;2.97;;;1.63;;
18194;SDS011;9223;50.988;3.162;2023-09-19T23:34:44;3.63;;;1.77;;
18194;SDS011;9223;50.988;3.162;2023-09-19T23:40:50;2.45;;;1.75;;
18194;SDS011;9223;50.988;3.162;2023-09-19T23:46:53;3.60;;;1.80;;
18194;SDS011;9223;50.988;3.162;2023-09-19T23:52:57;3.35;;;1.90;;
18194;SDS011;9223;50.988;3.162;2023-09-19T23:59:08;2.88;;;1.50;;
